DAOO/ORN METAR and TAF weather

Enter ICAO airport designator
Station Type Date Time Source
DAOO METAR 2018/04/21 21:00 UTC NOAA

DAOO 212100Z 04008KT 9000 FEW026 SCT230 20/14 Q1013


Station Type Date Time Source
DAOO Decoded METAR 2018/04/21 21:00 UTC NOAA

Oran / Es Senia, Algeria (DAOO) 35-38N 000-36W 90M
Apr 21, 2018 - 05:00 PM EDT / 2018.04.21 2100 UTC
Wind: from the NE (040 degrees) at 9 MPH (8 KT):0
Visibility: 5 mile(s):0
Sky conditions: partly cloudy
Temperature: 68 F (20 C)
Dew Point: 57 F (14 C)
Relative Humidity: 68%
Pressure (altimeter): 29.91 in. Hg (1013 hPa)
ob: DAOO 212100Z 04008KT 9000 FEW026 SCT230 20/14 Q1013
cycle: 21

Station Type Date Time Source
DAOO TAF 2018/04/21 18:33 UTC NOAA

TAF DAOO 211700Z 2118/2218 08015KT 9000 FEW026
BECMG 2121/2123 22007KT PROB40
TEMPO 2200/2206 3000 BR
BECMG 2210/2212 36014KT


Example: see airport list